createdAt,value
2024-05-09T00:02:49.506Z,61.10
2024-05-09T00:07:55.111Z,61.40
2024-05-09T00:13:03.044Z,61.30
2024-05-09T00:18:09.362Z,61.30
2024-05-09T00:23:16.000Z,61.30
2024-05-09T00:28:25.858Z,61.60
2024-05-09T00:33:31.239Z,61.50
2024-05-09T00:38:36.623Z,61.80
2024-05-09T00:43:44.588Z,61.80
2024-05-09T00:48:50.054Z,61.10
2024-05-09T00:53:55.691Z,60.90
2024-05-09T00:59:03.690Z,61.30
2024-05-09T01:04:09.470Z,61.10
2024-05-09T01:09:15.008Z,61.30
2024-05-09T01:14:23.129Z,61.50
2024-05-09T01:19:31.767Z,60.70
2024-05-09T01:24:40.053Z,60.70
2024-05-09T01:29:45.210Z,60.30
2024-05-09T01:34:50.590Z,60.30
2024-05-09T01:39:58.454Z,60.20
2024-05-09T01:45:03.676Z,60.00
2024-05-09T01:50:11.043Z,59.90
2024-05-09T01:55:19.690Z,60.00
2024-05-09T02:00:38.657Z,59.20
2024-05-09T02:05:47.992Z,59.40
2024-05-09T02:10:56.413Z,59.40
2024-05-09T02:16:01.709Z,59.40
2024-05-09T02:21:07.326Z,59.40
2024-05-09T02:26:15.375Z,59.50
2024-05-09T02:31:20.731Z,59.70
2024-05-09T02:36:25.927Z,60.20
2024-05-09T02:41:33.791Z,60.10
2024-05-09T02:46:39.202Z,60.10
2024-05-09T02:51:44.559Z,60.00
2024-05-09T02:56:52.391Z,60.20
2024-05-09T03:01:57.751Z,60.40
2024-05-09T03:07:03.000Z,61.00
2024-05-09T03:12:11.269Z,60.90
2024-05-09T03:17:16.635Z,60.20
2024-05-09T03:22:21.854Z,60.80
2024-05-09T03:27:29.662Z,60.50
2024-05-09T03:32:35.082Z,60.70
2024-05-09T03:37:40.456Z,61.20
2024-05-09T03:42:50.497Z,61.20
2024-05-09T03:47:55.962Z,60.50
2024-05-09T03:53:01.437Z,60.70
2024-05-09T03:58:09.685Z,60.60
2024-05-09T04:03:15.413Z,60.00
2024-05-09T04:08:21.248Z,60.10
2024-05-09T04:13:29.170Z,59.80
2024-05-09T04:18:34.444Z,59.70
2024-05-09T04:23:39.861Z,59.60
2024-05-09T04:28:47.685Z,59.50
2024-05-09T04:33:53.033Z,59.20
2024-05-09T04:38:58.333Z,59.20
2024-05-09T04:44:06.299Z,59.10
2024-05-09T04:49:11.668Z,58.80
2024-05-09T04:54:26.427Z,58.90
2024-05-09T04:59:41.829Z,58.90
2024-05-09T05:04:47.180Z,58.60
2024-05-09T05:09:53.269Z,59.00
2024-05-09T05:15:01.103Z,58.70
2024-05-09T05:20:08.542Z,58.50
2024-05-09T05:25:13.976Z,58.70
2024-05-09T05:30:28.707Z,58.90
2024-05-09T05:35:39.096Z,58.60
2024-05-09T05:45:52.408Z,59.00
2024-05-09T05:50:58.956Z,58.60
2024-05-09T05:56:05.178Z,58.50
2024-05-09T06:01:13.161Z,58.20
2024-05-09T06:06:18.487Z,57.60
2024-05-09T06:11:23.897Z,57.70
2024-05-09T06:16:31.848Z,57.60
2024-05-09T06:21:37.014Z,57.60
2024-05-09T06:26:44.894Z,57.90
2024-05-09T06:31:52.780Z,58.00
2024-05-09T06:36:58.073Z,58.10
2024-05-09T06:42:03.271Z,58.30
2024-05-09T06:47:11.179Z,58.50
2024-05-09T06:52:16.675Z,58.60
2024-05-09T06:57:22.059Z,58.70
2024-05-09T07:02:30.061Z,58.70
2024-05-09T07:07:35.702Z,58.50
2024-05-09T07:12:40.893Z,59.00
2024-05-09T07:17:49.085Z,59.60
2024-05-09T07:22:55.748Z,59.40
2024-05-09T07:28:00.941Z,59.30
2024-05-09T07:33:09.441Z,59.40
2024-05-09T07:38:14.895Z,59.40
2024-05-09T07:43:20.185Z,59.50
2024-05-09T07:50:00.846Z,59.10
2024-05-09T07:53:56.174Z,58.60
2024-05-09T07:59:04.021Z,59.60
2024-05-09T08:04:12.233Z,59.90
2024-05-09T08:09:21.098Z,60.10
2024-05-09T08:14:27.113Z,59.80
2024-05-09T08:19:37.856Z,59.80
2024-05-09T08:24:43.928Z,59.40
2024-05-09T08:29:49.217Z,59.30
2024-05-09T08:34:57.332Z,58.70
2024-05-09T08:40:03.931Z,57.90
2024-05-09T08:45:10.731Z,57.80
2024-05-09T08:50:29.124Z,57.50
2024-05-09T08:55:43.434Z,56.80
2024-05-09T09:00:50.313Z,56.90
2024-05-09T09:06:03.679Z,56.30
2024-05-09T09:11:09.179Z,54.90
2024-05-09T09:16:14.392Z,55.30
2024-05-09T09:21:22.341Z,55.30
2024-05-09T09:26:27.553Z,54.60
2024-05-09T09:31:33.662Z,54.90
2024-05-09T09:36:43.904Z,54.50
2024-05-09T09:41:51.531Z,53.50
2024-05-09T09:46:58.985Z,53.80
2024-05-09T09:52:08.447Z,53.60
2024-05-09T09:57:16.130Z,53.10
2024-05-09T10:02:21.627Z,53.50
2024-05-09T10:07:30.696Z,53.50
2024-05-09T10:12:36.402Z,52.50
2024-05-09T10:17:52.115Z,53.10
2024-05-09T10:23:00.051Z,53.10
2024-05-09T10:28:05.857Z,52.70
2024-05-09T10:33:14.152Z,52.80
2024-05-09T10:38:22.313Z,52.10
2024-05-09T10:43:28.499Z,52.00
2024-05-09T10:48:34.294Z,52.30
2024-05-09T10:53:49.148Z,52.70
2024-05-09T10:58:55.235Z,50.40
2024-05-09T11:04:01.807Z,51.50
2024-05-09T11:09:09.827Z,51.40
2024-05-09T11:14:15.554Z,50.80
2024-05-09T11:19:20.899Z,51.20
2024-05-09T11:24:29.002Z,51.00
2024-05-09T11:29:41.559Z,50.40
2024-05-09T11:34:46.928Z,49.90
2024-05-09T11:39:55.048Z,50.70
2024-05-09T11:45:00.588Z,49.90
2024-05-09T11:50:07.887Z,50.30
2024-05-09T11:55:18.718Z,50.00
2024-05-09T12:00:33.919Z,49.30
2024-05-09T12:05:42.671Z,49.70
2024-05-09T12:10:50.855Z,49.50
2024-05-09T12:15:57.356Z,48.60
2024-05-09T12:21:02.623Z,48.70
2024-05-09T12:26:11.030Z,48.90
2024-05-09T12:31:16.372Z,48.10
2024-05-09T12:36:21.722Z,48.50
2024-05-09T12:41:29.550Z,48.30
2024-05-09T12:46:34.832Z,47.60
2024-05-09T12:51:40.241Z,48.10
2024-05-09T12:56:48.157Z,48.10
2024-05-09T13:01:53.413Z,47.50
2024-05-09T13:06:58.818Z,48.00
2024-05-09T13:12:07.060Z,47.60
2024-05-09T13:17:12.288Z,47.20
2024-05-09T13:22:17.449Z,47.40
2024-05-09T13:27:25.340Z,47.30
2024-05-09T13:32:30.600Z,46.30
2024-05-09T13:37:36.008Z,46.90
2024-05-09T13:42:45.634Z,46.60
2024-05-09T13:47:52.337Z,46.10
2024-05-09T13:52:57.668Z,46.50
2024-05-09T13:58:05.835Z,46.60
2024-05-09T14:03:11.119Z,45.70
2024-05-09T14:08:18.783Z,46.10
2024-05-09T14:13:26.685Z,45.80
2024-05-09T14:18:32.073Z,45.10
2024-05-09T14:23:37.267Z,45.40
2024-05-09T14:28:45.202Z,45.40
2024-05-09T14:33:50.631Z,44.80
2024-05-09T14:38:55.941Z,45.30
2024-05-09T14:44:03.761Z,45.00
2024-05-09T14:49:12.171Z,44.60
2024-05-09T14:54:17.710Z,45.00
2024-05-09T14:59:25.632Z,44.90
2024-05-09T15:04:31.022Z,44.30
2024-05-09T15:09:38.953Z,44.60
2024-05-09T15:14:46.941Z,44.50
2024-05-09T15:19:52.404Z,44.40
2024-05-09T15:24:57.657Z,44.80
2024-05-09T15:30:08.494Z,45.00
2024-05-09T15:35:15.753Z,44.90
2024-05-09T15:40:30.622Z,45.10
2024-05-09T15:45:45.438Z,45.20
2024-05-09T15:50:50.692Z,45.00
2024-05-09T15:55:55.917Z,45.20
2024-05-09T16:01:03.909Z,45.40
2024-05-09T16:06:09.163Z,45.20
2024-05-09T16:11:16.993Z,45.40
2024-05-09T16:16:25.222Z,45.60
2024-05-09T16:21:30.610Z,45.60
2024-05-09T16:26:35.952Z,45.90
2024-05-09T16:31:43.824Z,46.00
2024-05-09T16:36:51.376Z,45.80
2024-05-09T16:41:56.639Z,46.00
2024-05-09T16:47:06.321Z,46.00
2024-05-09T16:52:11.660Z,45.90
2024-05-09T16:57:17.071Z,46.60
2024-05-09T17:02:25.146Z,45.90
2024-05-09T17:07:30.888Z,46.40
2024-05-09T17:12:36.137Z,46.50
2024-05-09T17:17:44.124Z,46.60
2024-05-09T17:22:49.530Z,46.50
2024-05-09T17:27:54.881Z,46.70
2024-05-09T17:33:02.980Z,46.70
2024-05-09T17:38:09.175Z,46.50
2024-05-09T17:43:14.757Z,46.80
2024-05-09T17:48:22.858Z,46.90
2024-05-09T17:53:28.226Z,46.90
2024-05-09T17:58:33.549Z,47.20
2024-05-09T18:03:43.185Z,47.20
2024-05-09T18:08:48.688Z,47.10
2024-05-09T18:13:54.658Z,47.30
2024-05-09T18:19:02.778Z,47.40
2024-05-09T18:24:10.318Z,47.40
2024-05-09T18:29:17.215Z,47.60
2024-05-09T18:34:26.592Z,47.60
2024-05-09T18:39:32.026Z,47.40
2024-05-09T18:44:38.010Z,47.60
2024-05-09T18:49:46.939Z,47.60
2024-05-09T18:54:52.689Z,47.70
2024-05-09T19:00:00.239Z,47.80
2024-05-09T19:05:09.369Z,47.90
2024-05-09T19:10:22.116Z,47.90
2024-05-09T19:15:31.411Z,48.10
2024-05-09T19:20:40.074Z,48.20
2024-05-09T19:25:46.010Z,48.40
2024-05-09T19:30:54.332Z,48.40
2024-05-09T19:36:03.221Z,48.50
2024-05-09T19:41:09.274Z,48.70
2024-05-09T19:46:16.025Z,48.70
2024-05-09T19:51:24.423Z,48.90
2024-05-09T19:56:30.812Z,49.00
2024-05-09T20:01:37.099Z,49.10
2024-05-09T20:06:46.330Z,49.90
2024-05-09T20:11:52.363Z,49.40
2024-05-09T20:16:58.850Z,49.40
2024-05-09T20:22:10.367Z,49.40
2024-05-09T20:27:18.418Z,49.50
2024-05-09T20:32:25.579Z,49.50
2024-05-09T20:37:34.376Z,49.60
2024-05-09T20:42:40.670Z,49.70
2024-05-09T20:47:46.297Z,49.70
2024-05-09T20:52:54.227Z,49.80
2024-05-09T20:57:59.538Z,50.00
2024-05-09T21:03:04.985Z,50.00
2024-05-09T21:08:13.187Z,50.10
2024-05-09T21:13:18.440Z,50.30
2024-05-09T21:18:23.782Z,50.30
2024-05-09T21:23:31.602Z,50.40
2024-05-09T21:28:36.868Z,50.60
2024-05-09T21:33:42.281Z,50.60
2024-05-09T21:38:50.229Z,50.70
2024-05-09T21:43:55.396Z,50.80
2024-05-09T21:49:00.700Z,50.80
2024-05-09T21:54:08.627Z,50.90
2024-05-09T21:59:14.121Z,51.10
2024-05-09T22:04:19.497Z,51.00
2024-05-09T22:09:27.382Z,51.10
2024-05-09T22:14:33.032Z,51.30
2024-05-09T22:19:38.360Z,51.30
2024-05-09T22:24:46.319Z,51.40
2024-05-09T22:29:51.505Z,51.50
2024-05-09T22:34:56.680Z,51.50
2024-05-09T22:40:06.830Z,51.50
2024-05-09T22:45:13.799Z,51.70
2024-05-09T22:50:26.537Z,51.60
2024-05-09T22:55:38.406Z,51.70
2024-05-09T23:00:43.812Z,51.90
2024-05-09T23:05:50.269Z,52.20
2024-05-09T23:10:58.116Z,52.20
2024-05-09T23:16:03.600Z,52.60
2024-05-09T23:21:09.319Z,52.50
2024-05-09T23:26:17.303Z,52.70
2024-05-09T23:31:23.895Z,53.00
2024-05-09T23:36:30.554Z,53.00
2024-05-09T23:41:38.364Z,53.10
2024-05-09T23:46:43.620Z,53.30
2024-05-09T23:51:48.856Z,53.20
2024-05-09T23:56:56.687Z,53.30
